createdAt,value
2019-05-17T00:00:43.079Z,37.10
2019-05-17T00:04:46.951Z,34.43
2019-05-17T00:08:49.640Z,38.83
2019-05-17T00:12:52.164Z,36.10
2019-05-17T00:16:54.404Z,32.47
2019-05-17T00:20:56.995Z,35.03
2019-05-17T00:24:59.475Z,32.10
2019-05-17T00:29:02.016Z,33.20
2019-05-17T00:33:04.533Z,37.33
2019-05-17T00:37:07.030Z,42.90
2019-05-17T00:41:09.644Z,31.30
2019-05-17T00:45:11.863Z,30.83
2019-05-17T00:49:14.291Z,30.20
2019-05-17T00:53:16.552Z,28.77
2019-05-17T00:57:18.851Z,29.77
2019-05-17T01:01:21.091Z,28.23
2019-05-17T01:05:23.597Z,30.53
2019-05-17T01:09:27.289Z,34.73
2019-05-17T01:13:29.434Z,31.33
2019-05-17T01:17:31.602Z,32.20
2019-05-17T01:21:36.926Z,31.30
2019-05-17T01:25:39.349Z,42.80
2019-05-17T01:29:41.594Z,43.07
2019-05-17T01:33:43.856Z,40.93
2019-05-17T01:37:47.485Z,46.90
2019-05-17T01:41:49.854Z,43.13
2019-05-17T01:45:52.382Z,40.90
2019-05-17T01:49:54.838Z,37.80
2019-05-17T01:53:57.500Z,32.27
2019-05-17T01:58:00.246Z,35.20
2019-05-17T02:02:02.899Z,37.43
2019-05-17T02:06:07.354Z,32.00
2019-05-17T02:10:09.025Z,32.30
2019-05-17T02:14:11.510Z,33.23
2019-05-17T02:18:14.154Z,31.33
2019-05-17T02:22:16.796Z,30.13
2019-05-17T02:26:19.309Z,30.40
2019-05-17T02:30:23.238Z,28.60
2019-05-17T02:34:25.311Z,25.43
2019-05-17T02:38:27.736Z,31.07
2019-05-17T02:42:32.994Z,25.47
2019-05-17T02:46:33.980Z,24.60
2019-05-17T02:50:36.256Z,32.63
2019-05-17T02:54:38.472Z,27.33
2019-05-17T02:58:43.632Z,31.83
2019-05-17T03:02:44.378Z,25.53
2019-05-17T03:06:46.913Z,25.87
2019-05-17T03:10:49.102Z,24.53
2019-05-17T03:14:52.861Z,24.67
2019-05-17T03:18:54.991Z,22.97
2019-05-17T03:22:57.270Z,24.10
2019-05-17T03:27:02.825Z,25.00
2019-05-17T03:31:07.884Z,23.73
2019-05-17T03:35:07.855Z,23.90
2019-05-17T03:39:16.155Z,23.67
2019-05-17T03:43:18.385Z,24.97
2019-05-17T03:47:22.706Z,22.47
2019-05-17T03:51:24.228Z,25.70
2019-05-17T03:55:26.470Z,25.80
2019-05-17T03:59:28.661Z,23.33
2019-05-17T04:03:35.134Z,25.30
2019-05-17T04:07:34.812Z,23.33
2019-05-17T04:11:37.225Z,24.20
2019-05-17T04:15:39.403Z,22.37
2019-05-17T04:19:42.587Z,23.17
2019-05-17T04:23:44.996Z,24.60
2019-05-17T04:27:47.413Z,23.77
2019-05-17T04:31:49.655Z,25.60
2019-05-17T04:35:54.156Z,23.60
2019-05-17T04:39:55.528Z,25.80
2019-05-17T04:43:57.947Z,21.07
2019-05-17T04:48:03.251Z,22.73
2019-05-17T04:52:03.951Z,24.33
2019-05-17T04:56:06.169Z,21.00
2019-05-17T05:00:08.534Z,20.87
2019-05-17T05:04:10.706Z,20.17
2019-05-17T05:08:13.281Z,20.53
2019-05-17T05:12:15.521Z,21.23
2019-05-17T05:16:17.935Z,21.03
2019-05-17T05:20:22.174Z,19.10
2019-05-17T05:24:24.055Z,20.00
2019-05-17T05:28:26.204Z,19.20
2019-05-17T05:32:28.446Z,19.50
2019-05-17T05:36:32.630Z,19.90
2019-05-17T05:40:34.468Z,19.70
2019-05-17T05:44:36.710Z,18.17
2019-05-17T05:48:39.033Z,19.03
2019-05-17T05:52:42.358Z,18.87
2019-05-17T05:56:44.987Z,17.60
2019-05-17T06:00:47.175Z,19.53
2019-05-17T06:04:51.688Z,18.00
2019-05-17T06:08:53.162Z,17.83
2019-05-17T06:12:55.525Z,19.40
2019-05-17T06:16:57.743Z,17.23
2019-05-17T06:21:02.703Z,16.63
2019-05-17T06:25:04.154Z,17.90
2019-05-17T06:29:06.502Z,15.03
2019-05-17T06:33:08.795Z,17.87
2019-05-17T06:37:12.998Z,15.63
2019-05-17T06:41:14.645Z,17.67
2019-05-17T06:45:16.851Z,17.07
2019-05-17T06:49:19.060Z,16.93
2019-05-17T06:53:21.906Z,17.47
2019-05-17T06:57:24.471Z,16.13
2019-05-17T07:01:29.130Z,18.63
2019-05-17T07:05:31.040Z,16.60
2019-05-17T07:09:35.964Z,16.13
2019-05-17T07:13:39.424Z,16.27
2019-05-17T07:17:41.033Z,15.90
2019-05-17T07:21:43.522Z,17.13
2019-05-17T07:25:45.888Z,16.30
2019-05-17T07:29:49.739Z,17.47
2019-05-17T07:33:52.406Z,15.97
2019-05-17T07:37:54.768Z,18.83
2019-05-17T07:41:57.359Z,15.60
2019-05-17T07:46:00.391Z,15.27
2019-05-17T07:50:02.969Z,16.90
2019-05-17T07:54:05.317Z,15.63
2019-05-17T07:58:09.712Z,15.00
2019-05-17T08:02:11.555Z,16.23
2019-05-17T08:06:13.928Z,14.80
2019-05-17T08:10:16.382Z,14.27
2019-05-17T08:14:29.333Z,14.23
2019-05-17T08:18:22.920Z,15.13
2019-05-17T08:22:25.424Z,15.00
2019-05-17T08:26:29.711Z,14.60
2019-05-17T08:30:31.742Z,14.77
2019-05-17T08:34:34.208Z,14.17
2019-05-17T08:38:36.638Z,14.63
2019-05-17T08:42:40.562Z,15.50
2019-05-17T08:46:42.763Z,13.53
2019-05-17T08:50:45.192Z,14.73
2019-05-17T08:54:49.456Z,14.10
2019-05-17T08:58:51.413Z,17.47
2019-05-17T09:02:53.923Z,15.37
2019-05-17T09:06:56.232Z,13.70
2019-05-17T09:11:00.388Z,13.60
2019-05-17T09:15:02.382Z,14.73
2019-05-17T09:19:04.907Z,15.43
2019-05-17T09:23:09.465Z,13.73
2019-05-17T09:27:11.278Z,14.20
2019-05-17T09:31:13.608Z,15.50
2019-05-17T09:35:16.387Z,14.93
2019-05-17T09:39:20.101Z,15.43
2019-05-17T09:43:22.864Z,16.93
2019-05-17T09:47:25.171Z,14.37
2019-05-17T09:51:27.676Z,14.07
2019-05-17T09:55:30.191Z,14.10
2019-05-17T09:59:32.685Z,13.43
2019-05-17T10:03:34.957Z,14.70
2019-05-17T10:07:40.132Z,15.00
2019-05-17T10:11:43.832Z,15.33
2019-05-17T10:15:46.222Z,14.43
2019-05-17T10:19:48.768Z,13.67
2019-05-17T10:23:51.603Z,16.47
2019-05-17T10:27:54.093Z,14.33
2019-05-17T10:31:56.780Z,13.70
2019-05-17T10:36:00.517Z,16.13
2019-05-17T10:40:03.309Z,16.50
2019-05-17T10:44:05.736Z,16.47
2019-05-17T10:48:09.911Z,24.23
2019-05-17T10:52:12.070Z,23.10
2019-05-17T10:56:14.511Z,16.40
2019-05-17T11:00:19.555Z,15.00
2019-05-17T11:04:20.891Z,15.50
2019-05-17T11:08:23.187Z,16.33
2019-05-17T11:12:25.738Z,16.03
2019-05-17T11:16:28.404Z,16.83
2019-05-17T11:20:31.031Z,15.63
2019-05-17T11:24:33.598Z,19.30
2019-05-17T11:28:36.143Z,15.90
2019-05-17T11:32:39.791Z,14.03
2019-05-17T11:36:42.347Z,15.07
2019-05-17T11:40:44.677Z,13.57
2019-05-17T11:44:47.062Z,15.93
2019-05-17T11:48:49.413Z,16.93
2019-05-17T11:52:51.760Z,14.40
2019-05-17T11:56:54.095Z,17.73
2019-05-17T12:00:56.519Z,15.93
2019-05-17T12:04:59.005Z,15.57
2019-05-17T12:09:01.331Z,19.30
2019-05-17T12:13:06.652Z,20.40
2019-05-17T12:17:09.351Z,17.53
2019-05-17T12:21:11.815Z,17.40
2019-05-17T12:25:14.222Z,14.87
2019-05-17T12:29:16.581Z,53.47
2019-05-17T12:33:19.036Z,18.47
2019-05-17T12:37:21.446Z,20.20
2019-05-17T12:41:23.819Z,22.33
2019-05-17T12:45:26.156Z,16.27
2019-05-17T12:49:28.760Z,15.90
2019-05-17T12:53:31.075Z,16.90
2019-05-17T12:57:33.487Z,17.17
2019-05-17T13:01:36.033Z,18.77
2019-05-17T13:05:38.939Z,18.47
2019-05-17T13:09:42.311Z,25.73
2019-05-17T13:13:44.967Z,24.20
2019-05-17T13:17:47.289Z,56.70
2019-05-17T13:21:49.667Z,146.93
2019-05-17T13:25:52.149Z,107.10
2019-05-17T13:29:54.884Z,80.73
2019-05-17T13:33:57.510Z,60.80
2019-05-17T13:38:00.171Z,44.13
2019-05-17T13:42:02.682Z,46.57
2019-05-17T13:46:06.108Z,48.73
2019-05-17T13:50:08.482Z,51.30
2019-05-17T13:54:10.995Z,47.27
2019-05-17T13:58:13.299Z,39.20
2019-05-17T14:02:15.793Z,40.53
2019-05-17T14:06:18.009Z,55.50
2019-05-17T14:10:27.694Z,43.53
2019-05-17T14:14:23.990Z,48.13
2019-05-17T14:18:26.399Z,35.93
2019-05-17T14:22:28.866Z,40.90
2019-05-17T14:26:31.703Z,40.13
2019-05-17T14:30:34.235Z,54.43
2019-05-17T14:34:36.954Z,39.60
2019-05-17T14:38:39.334Z,38.10
2019-05-17T14:42:41.794Z,34.77
2019-05-17T14:46:44.003Z,42.20
2019-05-17T14:50:46.604Z,32.33
2019-05-17T14:54:48.901Z,36.33
2019-05-17T14:58:51.346Z,34.73
2019-05-17T15:02:53.728Z,38.97
2019-05-17T15:06:56.214Z,29.43
2019-05-17T15:10:58.543Z,28.57
2019-05-17T15:15:01.152Z,31.53
2019-05-17T15:19:03.436Z,29.37
2019-05-17T15:23:06.090Z,29.80
2019-05-17T15:27:08.721Z,31.30
2019-05-17T15:31:11.557Z,33.17
2019-05-17T15:35:13.855Z,27.77
2019-05-17T15:39:16.185Z,25.20
2019-05-17T15:43:18.549Z,19.60
2019-05-17T15:47:21.282Z,25.27
2019-05-17T15:51:23.707Z,30.33
2019-05-17T15:55:26.259Z,22.70
2019-05-17T15:59:28.515Z,19.80
2019-05-17T16:03:30.943Z,21.83
2019-05-17T16:07:33.281Z,23.00
2019-05-17T16:11:35.844Z,24.87
2019-05-17T16:15:38.361Z,22.53
2019-05-17T16:19:40.963Z,21.40
2019-05-17T16:23:43.233Z,16.87
2019-05-17T16:27:45.636Z,21.17
2019-05-17T16:31:48.230Z,16.27
2019-05-17T16:35:50.778Z,21.60
2019-05-17T16:39:53.099Z,18.90
2019-05-17T16:43:55.709Z,19.63
2019-05-17T16:47:58.075Z,22.27
2019-05-17T16:52:00.616Z,19.63
2019-05-17T16:56:03.082Z,16.77
2019-05-17T17:00:05.844Z,16.10
2019-05-17T17:04:08.241Z,21.47
2019-05-17T17:08:10.726Z,23.47
2019-05-17T17:12:13.215Z,18.43
2019-05-17T17:16:15.683Z,17.10
2019-05-17T17:20:18.289Z,22.27
2019-05-17T17:24:22.458Z,24.80
2019-05-17T17:28:25.598Z,31.10
2019-05-17T17:32:28.482Z,45.97
2019-05-17T17:36:30.810Z,44.67
2019-05-17T17:40:33.738Z,55.80
2019-05-17T17:44:36.047Z,45.10
2019-05-17T17:48:38.786Z,51.33
2019-05-17T17:52:41.134Z,50.73
2019-05-17T17:56:43.990Z,56.53
2019-05-17T18:00:46.441Z,75.00
2019-05-17T18:04:49.057Z,53.73
2019-05-17T18:08:51.442Z,48.20
2019-05-17T18:12:54.167Z,38.33
2019-05-17T18:16:56.741Z,35.90
2019-05-17T18:20:59.718Z,27.57
2019-05-17T18:25:02.121Z,31.30
2019-05-17T18:29:07.693Z,30.20
2019-05-17T18:33:08.613Z,26.20
2019-05-17T18:37:11.145Z,34.90
2019-05-17T18:41:13.527Z,28.13
2019-05-17T18:45:15.928Z,32.80
2019-05-17T18:49:18.191Z,36.27
2019-05-17T18:53:20.763Z,42.33
2019-05-17T18:57:23.159Z,48.00
2019-05-17T19:01:25.554Z,39.50
2019-05-17T19:05:27.887Z,31.83
2019-05-17T19:09:30.410Z,32.30
2019-05-17T19:13:32.812Z,56.03
2019-05-17T19:17:35.480Z,36.90
2019-05-17T19:21:37.752Z,30.20
2019-05-17T19:25:40.168Z,32.93
2019-05-17T19:29:43.368Z,31.57
2019-05-17T19:33:46.056Z,33.30
2019-05-17T19:37:48.296Z,26.23
2019-05-17T19:41:50.738Z,26.33
2019-05-17T19:45:53.091Z,27.43
2019-05-17T19:49:55.637Z,34.97
2019-05-17T19:53:58.032Z,31.30
2019-05-17T19:58:00.400Z,24.80
2019-05-17T20:02:05.933Z,22.57
2019-05-17T20:06:06.683Z,19.60
2019-05-17T20:10:09.011Z,18.07
2019-05-17T20:14:11.410Z,27.13
2019-05-17T20:18:13.722Z,25.90
2019-05-17T20:22:17.089Z,17.33
2019-05-17T20:26:19.447Z,19.03
2019-05-17T20:30:22.018Z,18.80
2019-05-17T20:34:24.313Z,18.37
2019-05-17T20:38:26.828Z,19.27
2019-05-17T20:42:29.210Z,16.93
2019-05-17T20:46:31.446Z,19.70
2019-05-17T20:50:33.822Z,18.20
2019-05-17T20:54:36.195Z,14.17
2019-05-17T20:58:38.500Z,15.90
2019-05-17T21:02:41.139Z,20.60
2019-05-17T21:06:43.735Z,14.07
2019-05-17T21:10:46.125Z,15.60
2019-05-17T21:14:48.583Z,13.23
2019-05-17T21:18:51.028Z,13.73
2019-05-17T21:22:53.479Z,12.27
2019-05-17T21:26:55.957Z,16.93
2019-05-17T21:30:58.290Z,15.50
2019-05-17T21:35:00.631Z,12.27
2019-05-17T21:39:02.912Z,13.40
2019-05-17T21:43:05.380Z,11.70
2019-05-17T21:47:07.752Z,17.90
2019-05-17T21:51:10.322Z,12.33
2019-05-17T21:55:12.643Z,20.80
2019-05-17T21:59:15.134Z,11.10
2019-05-17T22:03:17.663Z,12.73
2019-05-17T22:07:20.126Z,15.30
2019-05-17T22:11:22.363Z,10.20
2019-05-17T22:15:25.126Z,18.17
2019-05-17T22:19:27.917Z,18.87
2019-05-17T22:23:30.126Z,15.60
2019-05-17T22:27:32.380Z,11.40
2019-05-17T22:31:34.878Z,15.27
2019-05-17T22:35:37.321Z,13.50
2019-05-17T22:39:39.860Z,18.03
2019-05-17T22:43:42.141Z,15.57
2019-05-17T22:47:44.611Z,14.50
2019-05-17T22:51:46.992Z,15.30
2019-05-17T22:55:49.432Z,15.77
2019-05-17T22:59:51.853Z,15.53
2019-05-17T23:03:54.261Z,16.50
2019-05-17T23:07:56.568Z,14.00
2019-05-17T23:11:59.222Z,14.53
2019-05-17T23:16:01.686Z,16.50
2019-05-17T23:20:04.251Z,16.80
2019-05-17T23:24:06.627Z,16.50
2019-05-17T23:28:09.081Z,172.00
2019-05-17T23:32:11.457Z,41.10
2019-05-17T23:36:13.891Z,47.37
2019-05-17T23:40:16.265Z,51.53
2019-05-17T23:44:18.725Z,40.87
2019-05-17T23:48:21.124Z,37.63
2019-05-17T23:52:23.678Z,35.93
2019-05-17T23:56:26.052Z,35.00
